• Join FlightAware (Why Join?)
  • Login
  • US Flag 
02:05AM EDT


 

Airport Tracker/Info


-or-


 

Live Flight TrackerFlight Track Log ✈ SWA417 ✈ 12-May-2013 ✈ KLAS - KRNO

Flight Track Log - Related Links

Times and Time Zones

All times are in EDT time to prevent confusion due to time zone crossing. See the SWA417 flight status page for this flight to view local times or setup timezone preferences in your user account.

Time Position Orientation Groundspeed Altitude Reporting Facility
EDT Latitude Longitude Course Direction KTS MPH feet Rate Location/Type
03:53PM 36.0747 -115.1714 263° West 163 188 3,300  Level Los Angeles Center
03:54PM 36.0675 -115.2481 263° West 226 260 5,600 1,860 Climbing Los Angeles Center
03:55PM 36.0242 -115.2761 208° Southwest 230 265 7,000 720 Climbing Los Angeles Center
03:56PM 35.9581 -115.3139 205° Southwest 248 285 7,000 1,260 Level Los Angeles Center
03:57PM 35.9000 -115.3875 226° Southwest 279 321 9,700 2,700 Climbing Los Angeles Center
03:58PM 35.8869 -115.4861 261° West 297 342 12,700 2,700 Climbing Los Angeles Center
03:59PM 35.8894 -115.6131 271° West 338 389 15,400 2,700 Climbing Los Angeles Center
04:00PM 35.8917 -115.7569 271° West 389 448 18,400 1,800 Climbing Los Angeles Center
04:01PM 35.8947 -115.8964 272° West 404 465 19,200 1,620 Climbing Los Angeles Center
04:02PM 35.9600 -116.0036 307° West 387 445 21,800 2,460 Climbing Los Angeles Center
04:03PM 36.0483 -116.1089 316° Northwest 411 473 24,400 2,340 Climbing Los Angeles Center
04:04PM 36.1308 -116.2114 315° West 418 481 26,700 1,980 Climbing Los Angeles Center
04:05PM 36.2150 -116.3133 316° Northwest 427 491 28,600 2,220 Climbing Los Angeles Center
04:06PM 36.3031 -116.4211 315° West 440 506 31,300 2,520 Climbing Los Angeles Center
04:07PM 36.3864 -116.5250 315° West 430 495 33,900 1,260 Climbing Los Angeles Center
04:08PM 36.4847 -116.6456 315° West 418 481 34,000  Climbing Los Angeles Center
04:09PM 36.5725 -116.7511 316° Northwest 419 482 34,000  Level Los Angeles Center
04:10PM 36.6714 -116.8272 328° Northwest 418 481 34,000  Level Los Angeles Center
04:11PM 36.7636 -116.8975 329° Northwest 413 475 34,000  Level Los Angeles Center
04:12PM 36.8686 -116.9767 329° Northwest 415 478 34,000  Level Los Angeles Center
04:13PM 36.9686 -117.0503 330° Northwest 416 479 34,000  Level Los Angeles Center
04:14PM 37.0897 -117.1322 332° Northwest 413 475 34,000  Level Los Angeles Center
04:15PM 37.1908 -117.2028 331° Northwest 415 478 34,000  Level Los Angeles Center
04:16PM 37.2931 -117.2722 332° Northwest 415 478 34,000  Level Los Angeles Center
04:17PM 37.3950 -117.3444 331° Northwest 418 481 34,000  Level Los Angeles Center
04:18PM 37.5164 -117.4281 331° Northwest 417 480 34,000  Level Oakland Center
04:20PM 37.6178 -117.5003 331° Northwest 418 481 34,000  Level Oakland Center
04:21PM 37.7197 -117.5708 331° Northwest 415 478 34,000  Level Oakland Center
04:22PM 37.8225 -117.6428 331° Northwest 418 481 34,000  Level Oakland Center
04:23PM 37.9233 -117.7142 331° Northwest 413 475 34,000  Level Oakland Center
04:24PM 38.0239 -117.7911 329° Northwest 417 480 34,000  Level Oakland Center
04:25PM 38.1086 -117.8953 316° Northwest 419 482 34,000 -60 Level Oakland Center
04:26PM 38.1939 -117.9983 316° Northwest 420 483 33,900 -600 Descending Oakland Center
04:27PM 38.2886 -118.1128 317° Northwest 420 483 32,800 -1,020 Descending Oakland Center
04:28PM 38.3742 -118.2164 317° Northwest 423 487 31,900 -960 Descending Oakland Center
04:29PM 38.4608 -118.3211 317° Northwest 428 493 30,900 -1,020 Descending Oakland Center
04:30PM 38.5481 -118.4281 316° Northwest 433 498 29,900 -1,020 Descending Oakland Center
04:31PM 38.6358 -118.5364 316° Northwest 436 502 28,900 -960 Descending Oakland Center
04:32PM 38.7233 -118.6436 316° Northwest 435 501 28,000 -480 Descending Oakland Center
04:33PM 38.8092 -118.7489 316° Northwest 427 491 28,000  Level Oakland Center
04:34PM 38.8942 -118.8564 315° West 426 490 28,000 -300 Level Oakland Center
04:35PM 38.9789 -118.9611 316° Northwest 420 483 27,500 -1,320 Descending Oakland Center
04:36PM 39.0631 -119.0664 316° Northwest 419 482 25,300 -2,460 Descending Oakland Center
04:37PM 39.1603 -119.1878 316° Northwest 405 466 22,500 -2,400 Descending Oakland Center
04:38PM 39.2369 -119.2850 316° Northwest 388 447 20,400 -2,220 Descending Oakland Center
04:39PM 39.3128 -119.3806 316° Northwest 381 438 18,000 -2,280 Descending Oakland Center
04:40PM 39.3861 -119.4733 316° Northwest 371 427 15,800 -2,520 Descending Oakland Center
04:41PM 39.4569 -119.5614 316° Northwest 358 412 12,900 -2,820 Descending Oakland Center
04:42PM 39.5167 -119.6333 317° Northwest 331 381 10,600 -1,500 Descending Northern Cal TRACON
04:43PM 39.6000 -119.6667 343° North 263 303 10,000 -300 Descending Northern Cal TRACON
04:44PM 39.6500 -119.6833 346° North 189 217 10,000 -960 Level Northern Cal TRACON
04:45PM 39.6500 -119.7333 270° West 157 181 8,200 -1,680 Descending Northern Cal TRACON
04:46PM 39.6167 -119.7667 218° Southwest 146 168 6,500 -1,260 Descending Northern Cal TRACON
04:47PM 39.5667 -119.7833 194° South 153 176 5,600 -840 Descending Northern Cal TRACON
04:48PM 39.5333 -119.7667 159° South 153 176 5,000 -720 Descending Northern Cal TRACON
04:50PM 39.4991 -119.7681 194° South  Level Estimated